CO62 weather

Cherry Creek Townhouse Heliport
Glendale, Colorado, United States

Public forecast

Using degrees Fahrenheit for public forecast. Weather courtesy of forecast.io.

METAR (pilot weather report)

Closest report is Buckley Air Force Base, 8.6 nm (16.0 km) E. Retrieved 2019/04/21 20:58 UTC (44 minutes ago):

KBKF 212058Z COR 20009KT 10SM FEW060 SCT085 BKN110 BKN160 BKN210 15/03 A2990 RMK AO2A PK WND 28026/16 LTG DSNT N-E-SE SLP081 CB 20N-24E-22SE 60000 T01510026 53017 COR 2107

TAF (pilot weather forecast)

Closest forecast is Buckley Air Force Base, 8.6 nm (16.0 km) E. Retrieved 2019/04/21 17:06 UTC (5 hours ago):

TAF KBKF 211704Z 2117/2223 22009KT 9999 SCT100 BKN200 QNH2978INS BECMG 2118/2119 03012G18KT 8000 -SHRA BKN080 OVC120 QNH2979INS TEMPO 2119/2123 VRB25G35KT VCTS OVC060CB DRY MICROBURST CONDS EXIST BECMG 2202/2203 03009KT 9999 NSW BKN015 QNH3000INS BECMG 2210/2211 03009KT 6000 -SHRA BR BKN090 QNH3007INS TX21/2121Z TN06/2213Z